createdAt,value
2023-04-01T00:01:30.314Z,2.92
2023-04-01T00:03:58.496Z,4.47
2023-04-01T00:06:28.531Z,3.03
2023-04-01T00:08:59.511Z,2.92
2023-04-01T00:11:28.247Z,5.07
2023-04-01T00:13:58.448Z,2.87
2023-04-01T00:16:28.275Z,3.38
2023-04-01T00:18:56.254Z,3.15
2023-04-01T00:21:24.233Z,3.73
2023-04-01T00:23:54.421Z,5.93
2023-04-01T00:26:26.234Z,4.20
2023-04-01T00:28:53.970Z,5.30
2023-04-01T00:31:24.056Z,2.37
2023-04-01T00:33:54.319Z,3.00
2023-04-01T00:38:54.503Z,3.67
2023-04-01T00:41:27.191Z,3.30
2023-04-01T00:43:57.248Z,3.90
2023-04-01T00:46:27.301Z,2.90
2023-04-01T00:48:57.410Z,5.35
2023-04-01T00:51:33.251Z,7.63
2023-04-01T00:54:04.645Z,4.13
2023-04-01T00:56:42.573Z,7.93
2023-04-01T00:59:13.914Z,3.57
2023-04-01T01:01:46.143Z,3.20
2023-04-01T01:04:28.449Z,5.37
2023-04-01T01:07:11.555Z,4.63
2023-04-01T01:09:47.713Z,4.20
2023-04-01T01:12:25.236Z,2.97
2023-04-01T01:15:03.770Z,6.23
2023-04-01T01:17:41.905Z,3.73
2023-04-01T01:20:42.436Z,4.97
2023-04-01T01:23:51.985Z,5.13
2023-04-01T01:26:50.604Z,3.55
2023-04-01T01:29:53.535Z,3.70
2023-04-01T01:32:36.688Z,2.67
2023-04-01T01:35:29.633Z,3.93
2023-04-01T01:38:00.507Z,7.00
2023-04-01T01:40:35.549Z,6.53
2023-04-01T01:43:12.398Z,4.57
2023-04-01T01:45:50.046Z,4.13
2023-04-01T01:48:19.404Z,4.97
2023-04-01T01:50:54.040Z,4.95
2023-04-01T01:53:21.788Z,5.00
2023-04-01T01:55:55.002Z,9.73
2023-04-01T01:58:28.812Z,3.50
2023-04-01T02:01:02.052Z,4.63
2023-04-01T02:03:35.692Z,5.73
2023-04-01T02:06:10.297Z,4.77
2023-04-01T02:08:42.800Z,5.07
2023-04-01T02:11:15.493Z,4.50
2023-04-01T02:13:51.730Z,2.97
2023-04-01T02:16:25.887Z,5.67
2023-04-01T02:18:57.136Z,3.77
2023-04-01T02:21:32.798Z,3.97
2023-04-01T02:24:06.012Z,6.23
2023-04-01T02:26:36.635Z,4.77
2023-04-01T02:29:06.657Z,3.37
2023-04-01T02:31:37.107Z,4.13
2023-04-01T02:34:07.399Z,4.77
2023-04-01T02:39:10.474Z,2.77
2023-04-01T02:41:43.399Z,3.10
2023-04-01T02:44:11.989Z,4.10
2023-04-01T02:46:39.800Z,5.30
2023-04-01T02:49:11.778Z,3.63
2023-04-01T02:51:44.909Z,3.67
2023-04-01T02:54:15.321Z,5.67
2023-04-01T02:56:46.597Z,3.60
2023-04-01T02:59:14.362Z,4.72
2023-04-01T03:01:43.935Z,3.53
2023-04-01T03:04:13.877Z,5.38
2023-04-01T03:06:42.961Z,5.80
2023-04-01T03:09:12.747Z,4.03
2023-04-01T03:11:42.742Z,4.30
2023-04-01T03:14:10.507Z,5.97
2023-04-01T03:16:40.197Z,3.37
2023-04-01T03:19:10.356Z,4.22
2023-04-01T03:21:38.139Z,5.33
2023-04-01T03:24:10.817Z,4.38
2023-04-01T03:26:41.044Z,5.88
2023-04-01T03:31:38.380Z,3.83
2023-04-01T03:34:08.317Z,4.32
2023-04-01T03:36:36.207Z,5.20
2023-04-01T03:39:06.610Z,2.60
2023-04-01T03:41:38.050Z,3.95
2023-04-01T03:44:05.847Z,3.03
2023-04-01T03:46:35.469Z,2.97
2023-04-01T03:49:12.349Z,2.83
2023-04-01T03:51:42.682Z,5.22
2023-04-01T03:54:13.142Z,3.83
2023-04-01T03:56:42.257Z,5.40
2023-04-01T03:59:12.009Z,4.05
2023-04-01T04:01:41.889Z,4.30
2023-04-01T04:04:09.658Z,2.45
2023-04-01T04:06:39.658Z,3.90
2023-04-01T04:09:11.408Z,3.63
2023-04-01T04:11:39.137Z,3.70
2023-04-01T04:14:08.251Z,3.50
2023-04-01T04:16:40.427Z,4.65
2023-04-01T04:19:08.297Z,5.80
2023-04-01T04:21:44.236Z,3.53
2023-04-01T04:24:16.994Z,3.28
2023-04-01T04:26:44.676Z,5.32
2023-04-01T04:29:15.614Z,5.40
2023-04-01T04:31:45.770Z,4.95
2023-04-01T04:36:45.507Z,4.75
2023-04-01T04:39:17.289Z,5.72
2023-04-01T04:41:45.353Z,4.82
2023-04-01T04:44:16.461Z,3.65
2023-04-01T04:46:46.447Z,2.85
2023-04-01T04:49:14.784Z,3.58
2023-04-01T04:51:44.671Z,3.40
2023-04-01T04:54:16.755Z,4.80
2023-04-01T04:56:44.451Z,6.45
2023-04-01T04:59:15.842Z,3.60
2023-04-01T05:01:46.861Z,4.80
2023-04-01T05:04:14.743Z,3.35
2023-04-01T05:06:44.760Z,7.63
2023-04-01T05:09:19.123Z,4.60
2023-04-01T05:11:47.041Z,5.90
2023-04-01T05:14:18.095Z,7.75
2023-04-01T05:16:47.233Z,7.10
2023-04-01T05:19:16.837Z,3.77
2023-04-01T05:21:46.804Z,5.40
2023-04-01T05:24:14.576Z,4.90
2023-04-01T05:26:44.150Z,6.97
2023-04-01T05:29:14.169Z,4.13
2023-04-01T05:31:41.909Z,5.22
2023-04-01T05:34:13.298Z,5.47
2023-04-01T05:36:45.496Z,4.93
2023-04-01T05:39:13.222Z,3.60
2023-04-01T05:41:43.242Z,3.37
2023-04-01T05:44:14.109Z,8.02
2023-04-01T05:46:41.904Z,4.40
2023-04-01T05:49:15.575Z,6.80
2023-04-01T05:51:45.571Z,4.27
2023-04-01T05:54:13.308Z,5.45
2023-04-01T05:56:42.967Z,4.30
2023-04-01T05:59:14.191Z,3.08
2023-04-01T06:01:42.200Z,3.00
2023-04-01T06:04:18.568Z,4.03
2023-04-01T06:06:46.909Z,5.97
2023-04-01T06:09:17.775Z,5.37
2023-04-01T06:12:02.859Z,3.03
2023-04-01T06:14:42.480Z,4.93
2023-04-01T06:17:28.519Z,2.90
2023-04-01T06:20:06.106Z,3.20
2023-04-01T06:22:55.025Z,4.47
2023-04-01T06:25:38.903Z,3.63
2023-04-01T06:28:34.808Z,6.27
2023-04-01T06:31:08.706Z,2.60
2023-04-01T06:34:01.843Z,4.43
2023-04-01T06:36:45.156Z,2.80
2023-04-01T06:39:32.782Z,3.60
2023-04-01T06:42:17.159Z,2.97
2023-04-01T06:44:57.408Z,3.80
2023-04-01T06:47:37.143Z,2.60
2023-04-01T06:50:20.250Z,5.13
2023-04-01T06:52:58.851Z,4.67
2023-04-01T06:55:34.365Z,4.37
2023-04-01T06:58:05.718Z,3.57
2023-04-01T07:00:37.194Z,3.07
2023-04-01T07:03:17.407Z,3.63
2023-04-01T07:05:46.290Z,3.30
2023-04-01T07:08:19.983Z,4.83
2023-04-01T07:10:52.732Z,4.47
2023-04-01T07:13:26.407Z,5.50
2023-04-01T07:16:02.669Z,2.67
2023-04-01T07:18:37.906Z,3.17
2023-04-01T07:21:11.018Z,3.00
2023-04-01T07:23:44.473Z,3.33
2023-04-01T07:26:23.599Z,2.70
2023-04-01T07:28:56.041Z,4.63
2023-04-01T07:32:04.514Z,3.73
2023-04-01T07:34:39.991Z,6.23
2023-04-01T07:37:13.009Z,5.27
2023-04-01T07:39:52.813Z,5.90
2023-04-01T07:42:33.675Z,4.25
2023-04-01T07:45:09.684Z,9.07
2023-04-01T07:47:50.956Z,6.97
2023-04-01T07:50:27.909Z,4.10
2023-04-01T07:53:08.093Z,3.80
2023-04-01T07:55:46.147Z,4.60
2023-04-01T07:58:27.123Z,3.60
2023-04-01T08:01:03.635Z,4.97
2023-04-01T08:03:43.039Z,1.93
2023-04-01T08:06:20.705Z,5.23
2023-04-01T08:09:03.746Z,2.33
2023-04-01T08:11:48.125Z,3.87
2023-04-01T08:14:26.384Z,5.70
2023-04-01T08:17:04.308Z,1.83
2023-04-01T08:19:52.745Z,3.70
2023-04-01T08:22:27.367Z,1.90
2023-04-01T08:25:05.153Z,2.70
2023-04-01T08:27:39.583Z,3.53
2023-04-01T08:30:23.306Z,3.40
2023-04-01T08:32:57.741Z,2.37
2023-04-01T08:35:34.952Z,1.80
2023-04-01T08:38:14.125Z,2.57
2023-04-01T08:41:02.151Z,4.23
2023-04-01T08:44:01.445Z,4.97
2023-04-01T08:46:56.950Z,4.37
2023-04-01T08:49:39.112Z,4.60
2023-04-01T08:52:31.647Z,3.87
2023-04-01T08:55:20.992Z,1.67
2023-04-01T08:58:10.036Z,1.47
2023-04-01T09:00:45.690Z,2.33
2023-04-01T09:03:40.829Z,2.07
2023-04-01T09:06:35.377Z,1.20
2023-04-01T09:09:33.294Z,4.93
2023-04-01T09:12:18.276Z,3.40
2023-04-01T09:15:14.252Z,2.30
2023-04-01T09:17:58.979Z,3.03
2023-04-01T09:20:48.187Z,1.73
2023-04-01T09:23:50.538Z,1.47
2023-04-01T09:26:48.399Z,6.13
2023-04-01T09:29:32.061Z,3.37
2023-04-01T09:32:26.087Z,2.87
2023-04-01T09:35:22.264Z,3.13
2023-04-01T09:37:56.666Z,3.90
2023-04-01T09:40:36.187Z,2.97
2023-04-01T09:43:23.029Z,1.33
2023-04-01T09:46:03.134Z,2.20
2023-04-01T09:48:45.640Z,1.65
2023-04-01T09:51:28.223Z,1.50
2023-04-01T09:54:09.413Z,3.10
2023-04-01T09:57:09.933Z,0.80
2023-04-01T10:02:53.101Z,2.58
2023-04-01T10:06:04.317Z,3.37
2023-04-01T10:09:15.291Z,1.10
2023-04-01T10:12:21.881Z,3.20
2023-04-01T10:15:37.456Z,0.97
2023-04-01T10:18:39.601Z,1.60
2023-04-01T10:21:41.203Z,1.77
2023-04-01T10:24:34.596Z,1.10
2023-04-01T10:27:27.764Z,0.90
2023-04-01T10:30:18.194Z,1.73
2023-04-01T10:33:28.007Z,2.65
2023-04-01T10:36:37.542Z,2.03
2023-04-01T10:42:53.473Z,2.07
2023-04-01T10:45:51.652Z,1.87
2023-04-01T10:48:42.278Z,2.80
2023-04-01T10:51:51.427Z,4.43
2023-04-01T10:54:48.266Z,1.23
2023-04-01T10:57:42.545Z,2.43
2023-04-01T11:00:45.242Z,4.20
2023-04-01T11:03:48.970Z,2.37
2023-04-01T11:06:55.877Z,1.13
2023-04-01T11:09:59.283Z,1.63
2023-04-01T11:12:56.068Z,0.80
2023-04-01T11:15:48.867Z,1.70
2023-04-01T11:18:55.882Z,0.40
2023-04-01T11:21:59.906Z,0.80
2023-04-01T11:25:01.948Z,0.80
2023-04-01T11:27:54.199Z,1.13
2023-04-01T11:30:33.113Z,0.50
2023-04-01T11:33:05.849Z,0.20
2023-04-01T11:35:54.732Z,1.17
2023-04-01T11:38:37.853Z,0.40
2023-04-01T11:41:24.425Z,2.50
2023-04-01T11:44:12.510Z,0.43
2023-04-01T11:46:46.961Z,0.97
2023-04-01T11:49:31.144Z,0.53
2023-04-01T11:52:27.402Z,0.27
2023-04-01T11:55:21.784Z,1.90
2023-04-01T11:58:07.758Z,1.47
2023-04-01T12:01:06.836Z,0.93
2023-04-01T12:04:02.264Z,0.67
2023-04-01T12:06:40.699Z,0.30
2023-04-01T12:09:21.112Z,1.50
2023-04-01T12:12:02.831Z,0.40
2023-04-01T12:14:46.113Z,1.47
2023-04-01T12:17:31.175Z,1.60
2023-04-01T12:20:18.428Z,0.73
2023-04-01T12:22:57.519Z,1.27
2023-04-01T12:25:43.192Z,1.33
2023-04-01T12:28:24.636Z,2.57
2023-04-01T12:31:02.243Z,1.77
2023-04-01T12:33:45.888Z,2.40
2023-04-01T12:36:29.165Z,2.13
2023-04-01T12:39:21.309Z,1.20
2023-04-01T12:41:59.558Z,0.57
2023-04-01T12:44:54.537Z,2.63
2023-04-01T12:47:49.199Z,0.60
2023-04-01T12:50:47.156Z,1.60
2023-04-01T12:53:35.146Z,3.63
2023-04-01T12:56:05.970Z,0.87
2023-04-01T12:59:02.891Z,1.77
2023-04-01T13:02:09.499Z,0.73
2023-04-01T13:04:51.755Z,2.13
2023-04-01T13:07:33.776Z,1.23
2023-04-01T13:10:16.254Z,0.50
2023-04-01T13:13:01.530Z,3.00
2023-04-01T13:15:41.257Z,1.83
2023-04-01T13:18:20.131Z,1.25
2023-04-01T13:21:04.199Z,1.57
2023-04-01T13:23:46.049Z,3.10
2023-04-01T13:26:26.914Z,1.63
2023-04-01T13:29:02.996Z,0.27
2023-04-01T13:31:51.457Z,1.43
2023-04-01T13:34:33.058Z,0.97
2023-04-01T13:37:24.251Z,0.97
2023-04-01T13:40:05.587Z,1.87
2023-04-01T13:42:39.340Z,1.33
2023-04-01T13:45:19.725Z,0.57
2023-04-01T13:48:16.028Z,1.55
2023-04-01T13:51:09.392Z,1.80
2023-04-01T13:53:51.859Z,2.03
2023-04-01T13:56:35.580Z,1.90
2023-04-01T13:59:25.662Z,2.10
2023-04-01T14:02:07.894Z,1.70
2023-04-01T14:04:58.537Z,0.90
2023-04-01T14:07:49.772Z,1.40
2023-04-01T14:10:27.697Z,1.60
2023-04-01T14:13:04.135Z,2.10
2023-04-01T14:15:45.705Z,1.90
2023-04-01T14:18:35.434Z,2.07
2023-04-01T14:21:31.332Z,1.90
2023-04-01T14:24:20.260Z,1.30
2023-04-01T14:27:16.314Z,3.23
2023-04-01T14:30:00.566Z,0.53
2023-04-01T14:32:41.194Z,2.10
2023-04-01T14:35:36.179Z,1.13
2023-04-01T14:38:19.528Z,0.97
2023-04-01T14:41:11.394Z,2.33
2023-04-01T14:44:15.616Z,1.93
2023-04-01T14:47:14.273Z,2.40
2023-04-01T14:49:47.353Z,1.23
2023-04-01T14:52:23.852Z,2.40
2023-04-01T14:54:55.724Z,1.60
2023-04-01T14:57:27.764Z,1.93
2023-04-01T15:00:03.635Z,0.87
2023-04-01T15:02:48.613Z,1.87
2023-04-01T15:05:30.253Z,1.07
2023-04-01T15:08:19.357Z,1.70
2023-04-01T15:11:25.796Z,0.57
2023-04-01T15:14:19.360Z,1.23
2023-04-01T15:17:06.212Z,1.17
2023-04-01T15:19:46.844Z,2.87
2023-04-01T15:22:42.485Z,0.40
2023-04-01T15:25:32.674Z,1.70
2023-04-01T15:28:13.497Z,3.58
2023-04-01T15:30:51.174Z,1.00
2023-04-01T15:33:27.953Z,2.93
2023-04-01T15:36:06.837Z,1.00
2023-04-01T15:38:42.845Z,1.43
2023-04-01T15:41:17.938Z,0.90
2023-04-01T15:43:49.725Z,1.13
2023-04-01T15:46:29.385Z,3.50
2023-04-01T15:49:13.561Z,1.67
2023-04-01T15:51:57.425Z,2.90
2023-04-01T15:54:42.784Z,3.70
2023-04-01T15:57:29.656Z,4.37
2023-04-01T16:00:16.584Z,1.77
2023-04-01T16:02:52.041Z,2.50
2023-04-01T16:05:38.399Z,1.87
2023-04-01T16:08:25.309Z,2.60
2023-04-01T16:11:13.801Z,2.03
2023-04-01T16:13:54.408Z,2.77
2023-04-01T16:19:27.478Z,1.73
2023-04-01T16:22:02.755Z,2.70
2023-04-01T16:24:37.402Z,2.93
2023-04-01T16:27:12.293Z,2.47
2023-04-01T16:29:47.444Z,3.53
2023-04-01T16:32:31.559Z,2.23
2023-04-01T16:35:25.770Z,0.93
2023-04-01T16:38:09.801Z,7.33
2023-04-01T16:41:00.369Z,1.03
2023-04-01T16:46:29.527Z,3.10
2023-04-01T16:49:06.340Z,2.57
2023-04-01T16:51:44.093Z,2.83
2023-04-01T16:54:20.475Z,4.40
2023-04-01T16:56:57.139Z,3.03
2023-04-01T16:59:29.570Z,2.53
2023-04-01T17:02:06.394Z,3.77
2023-04-01T17:04:42.027Z,4.07
2023-04-01T17:07:24.005Z,4.83
2023-04-01T17:10:06.755Z,4.97
2023-04-01T17:12:44.859Z,8.27
2023-04-01T17:15:24.779Z,5.93
2023-04-01T17:18:03.576Z,9.00
2023-04-01T17:20:54.824Z,7.77
2023-04-01T17:23:36.284Z,3.47
2023-04-01T17:26:24.887Z,7.33
2023-04-01T17:28:59.425Z,8.10
2023-04-01T17:31:50.127Z,4.73
2023-04-01T17:34:37.688Z,5.03
2023-04-01T17:37:23.202Z,7.23
2023-04-01T17:40:01.203Z,6.07
2023-04-01T17:42:46.984Z,4.73
2023-04-01T17:45:26.213Z,3.13
2023-04-01T17:48:06.209Z,5.27
2023-04-01T17:50:50.404Z,4.38
2023-04-01T17:53:30.512Z,5.13
2023-04-01T17:56:12.264Z,8.98
2023-04-01T17:58:47.788Z,4.23
2023-04-01T18:01:32.229Z,10.17
2023-04-01T18:04:21.827Z,7.27
2023-04-01T18:07:05.594Z,6.80
2023-04-01T18:09:40.612Z,7.83
2023-04-01T18:12:21.584Z,7.43
2023-04-01T18:15:08.571Z,4.93
2023-04-01T18:17:50.213Z,6.07
2023-04-01T18:20:33.056Z,8.37
2023-04-01T18:23:04.971Z,8.43
2023-04-01T18:25:37.949Z,5.17
2023-04-01T18:28:28.582Z,5.37
2023-04-01T18:33:37.011Z,7.20
2023-04-01T18:36:20.834Z,13.67
2023-04-01T18:38:58.191Z,10.53
2023-04-01T18:41:38.236Z,15.57
2023-04-01T18:44:24.576Z,5.10
2023-04-01T18:47:02.873Z,7.47
2023-04-01T18:49:43.982Z,12.60
2023-04-01T18:52:21.984Z,7.13
2023-04-01T18:55:25.317Z,9.10
2023-04-01T18:57:56.981Z,7.93
2023-04-01T19:00:29.848Z,7.43
2023-04-01T19:03:02.940Z,5.47
2023-04-01T19:05:35.805Z,6.50
2023-04-01T19:08:29.848Z,7.13
2023-04-01T19:11:12.699Z,11.13
2023-04-01T19:13:54.003Z,7.90
2023-04-01T19:16:35.047Z,5.67
2023-04-01T19:19:28.636Z,9.67
2023-04-01T19:22:04.919Z,5.23
2023-04-01T19:24:50.026Z,8.70
2023-04-01T19:27:32.812Z,9.83
2023-04-01T19:30:21.556Z,9.60
2023-04-01T19:33:00.958Z,4.47
2023-04-01T19:35:42.619Z,10.33
2023-04-01T19:38:22.601Z,5.90
2023-04-01T19:40:55.700Z,8.95
2023-04-01T19:43:42.808Z,7.07
2023-04-01T19:46:22.774Z,9.87
2023-04-01T19:49:05.343Z,13.35
2023-04-01T19:51:41.448Z,13.17
2023-04-01T19:54:27.921Z,9.33
2023-04-01T19:57:02.827Z,7.23
2023-04-01T19:59:38.855Z,12.37
2023-04-01T20:02:37.273Z,8.50
2023-04-01T20:05:22.845Z,6.80
2023-04-01T20:07:55.508Z,11.57
2023-04-01T20:10:31.984Z,7.50
2023-04-01T20:13:23.737Z,11.97
2023-04-01T20:16:03.698Z,9.03
2023-04-01T20:18:42.690Z,10.98
2023-04-01T20:21:27.039Z,9.53
2023-04-01T20:24:01.164Z,8.30
2023-04-01T20:26:36.251Z,11.23
2023-04-01T20:29:27.368Z,10.03
2023-04-01T20:32:05.548Z,11.27
2023-04-01T20:34:56.936Z,8.23
2023-04-01T20:37:37.749Z,6.83
2023-04-01T20:40:33.139Z,8.07
2023-04-01T20:43:32.894Z,6.80
2023-04-01T20:46:08.222Z,6.10
2023-04-01T20:49:01.751Z,9.80
2023-04-01T20:51:33.879Z,7.73
2023-04-01T20:54:19.448Z,9.57
2023-04-01T20:57:01.012Z,7.67
2023-04-01T20:59:49.382Z,9.90
2023-04-01T21:02:31.361Z,5.60
2023-04-01T21:05:29.323Z,10.23
2023-04-01T21:08:06.610Z,8.60
2023-04-01T21:10:43.594Z,9.30
2023-04-01T21:13:24.662Z,11.60
2023-04-01T21:16:16.835Z,9.13
2023-04-01T21:19:00.779Z,13.37
2023-04-01T21:21:52.222Z,10.60
2023-04-01T21:24:46.623Z,5.73
2023-04-01T21:27:24.801Z,15.37
2023-04-01T21:30:02.553Z,22.53
2023-04-01T21:32:48.850Z,13.27
2023-04-01T21:35:32.125Z,9.43
2023-04-01T21:38:14.852Z,24.43
2023-04-01T21:41:11.745Z,11.27
2023-04-01T21:44:11.882Z,12.53
2023-04-01T21:47:18.964Z,16.40
2023-04-01T21:50:12.002Z,11.73
2023-04-01T21:53:11.964Z,16.80
2023-04-01T21:56:23.218Z,7.63
2023-04-01T21:59:28.164Z,7.17
2023-04-01T22:02:32.522Z,7.93
2023-04-01T22:05:09.765Z,6.93
2023-04-01T22:07:47.104Z,11.33
2023-04-01T22:10:30.512Z,19.10
2023-04-01T22:13:09.329Z,12.20
2023-04-01T22:16:01.383Z,16.33
2023-04-01T22:18:37.855Z,14.70
2023-04-01T22:21:14.578Z,20.80
2023-04-01T22:23:51.723Z,32.50
2023-04-01T22:26:27.703Z,18.00
2023-04-01T22:29:06.718Z,15.63
2023-04-01T22:31:42.298Z,16.87
2023-04-01T22:34:21.885Z,12.67
2023-04-01T22:36:57.876Z,11.00
2023-04-01T22:39:50.062Z,13.60
2023-04-01T22:42:36.643Z,15.53
2023-04-01T22:45:25.744Z,19.13
2023-04-01T22:48:03.674Z,20.07
2023-04-01T22:50:40.719Z,15.40
2023-04-01T22:53:23.767Z,14.43
2023-04-01T22:55:57.734Z,13.87
2023-04-01T22:58:32.492Z,11.53
2023-04-01T23:01:10.279Z,11.50
2023-04-01T23:03:42.958Z,5.33
2023-04-01T23:06:19.691Z,7.03
2023-04-01T23:09:11.070Z,9.13
2023-04-01T23:11:48.556Z,7.87
2023-04-01T23:14:45.306Z,8.03
2023-04-01T23:17:27.646Z,4.70
2023-04-01T23:20:06.820Z,9.93
2023-04-01T23:22:42.579Z,12.77
2023-04-01T23:25:24.793Z,10.37
2023-04-01T23:27:58.485Z,8.43
2023-04-01T23:30:51.421Z,12.20
2023-04-01T23:33:27.817Z,14.97
2023-04-01T23:36:06.088Z,5.67
2023-04-01T23:38:37.338Z,14.03
2023-04-01T23:41:10.624Z,16.43
2023-04-01T23:43:41.363Z,11.07
2023-04-01T23:46:11.541Z,6.60
2023-04-01T23:48:43.876Z,7.22
2023-04-01T23:51:20.361Z,7.40
2023-04-01T23:53:50.230Z,10.37
2023-04-01T23:56:25.382Z,13.00
2023-04-01T23:58:57.785Z,10.47
